createdAt,value
2023-02-19T00:00:48.110Z,59.15
2023-02-19T00:01:48.140Z,62.76
2023-02-19T00:02:48.098Z,62.62
2023-02-19T00:03:48.215Z,57.93
2023-02-19T00:04:48.130Z,63.16
2023-02-19T00:05:48.088Z,55.87
2023-02-19T00:06:48.062Z,61.44
2023-02-19T00:07:48.095Z,61.77
2023-02-19T00:08:48.101Z,61.55
2023-02-19T00:09:48.024Z,62.83
2023-02-19T00:10:50.318Z,53.37
2023-02-19T00:11:48.172Z,55.85
2023-02-19T00:12:48.052Z,52.92
2023-02-19T00:13:48.057Z,55.52
2023-02-19T00:14:48.108Z,62.87
2023-02-19T00:15:48.637Z,58.60
2023-02-19T00:16:48.005Z,52.95
2023-02-19T00:17:49.148Z,63.17
2023-02-19T00:18:48.029Z,58.99
2023-02-19T00:19:48.197Z,59.17
2023-02-19T00:20:48.981Z,65.85
2023-02-19T00:21:48.156Z,64.71
2023-02-19T00:22:48.511Z,66.30
2023-02-19T00:23:47.976Z,62.49
2023-02-19T00:24:49.319Z,64.29
2023-02-19T00:25:49.056Z,54.37
2023-02-19T00:26:48.009Z,53.51
2023-02-19T00:27:48.613Z,59.21
2023-02-19T00:28:47.896Z,52.92
2023-02-19T00:29:48.516Z,58.18
2023-02-19T00:30:47.931Z,53.21
2023-02-19T00:31:48.243Z,52.74
2023-02-19T00:32:47.905Z,53.05
2023-02-19T00:33:48.011Z,57.18
2023-02-19T00:34:48.011Z,53.25
2023-02-19T00:35:47.869Z,62.63
2023-02-19T00:36:48.692Z,60.62
2023-02-19T00:37:47.905Z,62.03
2023-02-19T00:38:48.552Z,65.52
2023-02-19T00:39:47.816Z,60.05
2023-02-19T00:40:48.616Z,56.19
2023-02-19T00:41:48.612Z,55.71
2023-02-19T00:42:47.853Z,64.01
2023-02-19T00:43:48.009Z,58.19
2023-02-19T00:44:47.828Z,57.35
2023-02-19T00:45:48.624Z,58.96
2023-02-19T00:46:48.661Z,62.60
2023-02-19T00:47:48.757Z,53.65
2023-02-19T00:48:47.864Z,57.42
2023-02-19T00:49:47.801Z,52.73
2023-02-19T00:50:47.784Z,52.87
2023-02-19T00:51:47.843Z,58.26
2023-02-19T00:52:47.768Z,52.79
2023-02-19T00:53:47.903Z,54.16
2023-02-19T00:54:47.773Z,56.01
2023-02-19T00:55:47.762Z,57.21
2023-02-19T00:56:47.728Z,56.50
2023-02-19T00:57:47.741Z,56.31
2023-02-19T00:58:47.832Z,55.14
2023-02-19T00:59:47.749Z,63.88
2023-02-19T01:00:47.700Z,58.20
2023-02-19T01:01:47.715Z,52.79
2023-02-19T01:02:47.676Z,58.29
2023-02-19T01:03:47.687Z,61.19
2023-02-19T01:04:47.774Z,57.99
2023-02-19T01:05:47.738Z,60.20
2023-02-19T01:06:47.757Z,53.17
2023-02-19T01:07:47.687Z,52.71
2023-02-19T01:08:47.656Z,52.97
2023-02-19T01:09:47.622Z,52.83
2023-02-19T01:10:47.674Z,53.50
2023-02-19T01:11:47.665Z,55.29
2023-02-19T01:12:47.631Z,61.15
2023-02-19T01:13:47.659Z,60.33
2023-02-19T01:14:47.691Z,53.76
2023-02-19T01:15:48.728Z,53.85
2023-02-19T01:16:47.649Z,58.33
2023-02-19T01:17:47.588Z,54.47
2023-02-19T01:18:47.583Z,57.75
2023-02-19T01:19:47.587Z,59.69
2023-02-19T01:20:47.590Z,56.66
2023-02-19T01:21:47.606Z,60.41
2023-02-19T01:22:47.550Z,53.19
2023-02-19T01:23:47.542Z,57.25
2023-02-19T01:24:47.536Z,56.01
2023-02-19T01:25:48.532Z,57.02
2023-02-19T01:26:47.557Z,55.66
2023-02-19T01:27:47.506Z,61.10
2023-02-19T01:28:47.532Z,56.89
2023-02-19T01:29:47.590Z,68.10
2023-02-19T01:30:47.589Z,55.78
2023-02-19T01:31:47.654Z,54.32
2023-02-19T01:32:47.521Z,59.70
2023-02-19T01:33:47.543Z,57.39
2023-02-19T01:34:47.520Z,53.29
2023-02-19T01:35:47.520Z,58.48
2023-02-19T01:36:47.512Z,62.53
2023-02-19T01:37:47.530Z,53.94
2023-02-19T01:38:47.469Z,58.94
2023-02-19T01:39:47.621Z,55.28
2023-02-19T01:40:47.442Z,57.57
2023-02-19T01:41:47.585Z,56.11
2023-02-19T01:42:47.429Z,54.26
2023-02-19T01:43:47.443Z,53.22
2023-02-19T01:44:47.442Z,55.88
2023-02-19T01:45:47.443Z,58.73
2023-02-19T01:46:47.786Z,57.88
2023-02-19T01:47:47.428Z,53.84
2023-02-19T01:48:47.662Z,53.15
2023-02-19T01:49:47.384Z,59.14
2023-02-19T01:50:47.419Z,59.76
2023-02-19T01:51:47.379Z,53.74
2023-02-19T01:52:47.383Z,53.67
2023-02-19T01:53:47.359Z,64.54
2023-02-19T01:54:47.413Z,53.07
2023-02-19T01:55:47.349Z,53.63
2023-02-19T01:56:48.345Z,52.60
2023-02-19T01:57:47.421Z,53.02
2023-02-19T01:58:47.394Z,55.14
2023-02-19T01:59:47.360Z,65.92
2023-02-19T02:00:47.331Z,56.53
2023-02-19T02:01:47.354Z,59.50
2023-02-19T02:02:47.294Z,62.54
2023-02-19T02:03:48.321Z,60.01
2023-02-19T02:04:47.285Z,66.66
2023-02-19T02:05:47.340Z,58.09
2023-02-19T02:06:47.290Z,61.19
2023-02-19T02:07:48.137Z,52.87
2023-02-19T02:08:47.325Z,52.70
2023-02-19T02:09:47.269Z,52.78
2023-02-19T02:10:48.158Z,53.24
2023-02-19T02:11:48.117Z,53.05
2023-02-19T02:12:47.639Z,60.14
2023-02-19T02:13:47.230Z,53.58
2023-02-19T02:14:47.274Z,52.84
2023-02-19T02:15:48.133Z,58.16
2023-02-19T02:16:47.222Z,53.12
2023-02-19T02:17:47.237Z,55.80
2023-02-19T02:18:47.240Z,56.07
2023-02-19T02:19:47.186Z,56.41
2023-02-19T02:20:47.223Z,57.07
2023-02-19T02:21:47.218Z,68.72
2023-02-19T02:22:47.186Z,59.33
2023-02-19T02:23:47.261Z,58.20
2023-02-19T02:24:47.151Z,53.71
2023-02-19T02:25:47.204Z,52.84
2023-02-19T02:26:47.224Z,53.34
2023-02-19T02:27:47.213Z,59.29
2023-02-19T02:28:47.198Z,60.39
2023-02-19T02:29:47.169Z,57.04
2023-02-19T02:30:47.145Z,53.92
2023-02-19T02:31:47.212Z,57.46
2023-02-19T02:32:47.172Z,52.62
2023-02-19T02:33:47.164Z,53.84
2023-02-19T02:34:47.138Z,55.80
2023-02-19T02:35:47.215Z,55.99
2023-02-19T02:36:47.101Z,56.61
2023-02-19T02:37:47.117Z,56.45
2023-02-19T02:38:47.091Z,55.89
2023-02-19T02:39:47.104Z,54.88
2023-02-19T02:40:47.117Z,63.08
2023-02-19T02:41:47.044Z,56.35
2023-02-19T02:42:47.079Z,52.74
2023-02-19T02:43:47.074Z,60.32
2023-02-19T02:44:47.056Z,58.18
2023-02-19T02:45:47.041Z,53.43
2023-02-19T02:46:47.064Z,52.62
2023-02-19T02:47:47.025Z,52.72
2023-02-19T02:48:47.012Z,52.72
2023-02-19T02:49:47.623Z,52.77
2023-02-19T02:50:47.020Z,58.50
2023-02-19T02:51:46.987Z,52.82
2023-02-19T02:52:46.994Z,54.53
2023-02-19T02:53:47.018Z,55.97
2023-02-19T02:54:46.991Z,62.54
2023-02-19T02:55:46.986Z,60.01
2023-02-19T02:56:47.026Z,56.27
2023-02-19T02:57:46.938Z,55.53
2023-02-19T02:58:46.961Z,55.86
2023-02-19T02:59:46.935Z,61.96
2023-02-19T03:00:46.928Z,58.64
2023-02-19T03:01:46.936Z,53.12
2023-02-19T03:02:46.908Z,52.52
2023-02-19T03:03:46.956Z,58.39
2023-02-19T03:04:47.714Z,53.16
2023-02-19T03:05:46.914Z,52.91
2023-02-19T03:06:46.938Z,58.19
2023-02-19T03:07:46.905Z,57.17
2023-02-19T03:08:46.876Z,59.14
2023-02-19T03:09:49.354Z,57.94
2023-02-19T03:10:46.871Z,53.35
2023-02-19T03:11:46.878Z,65.01
2023-02-19T03:12:46.858Z,53.88
2023-02-19T03:13:46.869Z,66.32
2023-02-19T03:14:46.838Z,60.95
2023-02-19T03:15:46.849Z,61.69
2023-02-19T03:16:47.059Z,57.92
2023-02-19T03:17:46.862Z,61.61
2023-02-19T03:18:46.852Z,53.40
2023-02-19T03:19:46.807Z,58.89
2023-02-19T03:20:46.812Z,61.59
2023-02-19T03:21:46.874Z,59.11
2023-02-19T03:22:46.810Z,58.33
2023-02-19T03:23:46.778Z,53.08
2023-02-19T03:24:46.824Z,52.70
2023-02-19T03:25:46.759Z,52.53
2023-02-19T03:26:46.796Z,52.95
2023-02-19T03:27:46.824Z,60.58
2023-02-19T03:28:46.775Z,52.76
2023-02-19T03:29:46.735Z,56.58
2023-02-19T03:30:46.734Z,52.76
2023-02-19T03:31:46.823Z,52.48
2023-02-19T03:32:46.730Z,52.62
2023-02-19T03:33:46.753Z,55.23
2023-02-19T03:34:46.707Z,60.06
2023-02-19T03:35:46.705Z,56.42
2023-02-19T03:36:47.719Z,56.02
2023-02-19T03:37:46.751Z,57.38
2023-02-19T03:38:46.712Z,53.51
2023-02-19T03:39:46.717Z,53.16
2023-02-19T03:40:46.665Z,61.77
2023-02-19T03:41:46.654Z,59.02
2023-02-19T03:42:46.672Z,52.80
2023-02-19T03:43:46.673Z,53.34
2023-02-19T03:44:46.660Z,52.60
2023-02-19T03:45:46.674Z,54.39
2023-02-19T03:46:46.722Z,58.52
2023-02-19T03:47:46.705Z,53.30
2023-02-19T03:48:46.664Z,53.42
2023-02-19T03:49:48.925Z,52.87
2023-02-19T03:50:47.602Z,54.68
2023-02-19T03:51:46.624Z,53.89
2023-02-19T03:52:46.614Z,61.69
2023-02-19T03:53:46.608Z,65.29
2023-02-19T03:54:46.591Z,61.87
2023-02-19T03:55:46.591Z,61.40
2023-02-19T03:56:46.578Z,60.44
2023-02-19T03:57:46.592Z,60.42
2023-02-19T03:58:48.128Z,62.73
2023-02-19T03:59:46.548Z,56.96
2023-02-19T04:00:46.552Z,55.62
2023-02-19T04:01:46.636Z,55.41
2023-02-19T04:02:46.533Z,61.61
2023-02-19T04:03:46.529Z,56.61
2023-02-19T04:04:46.558Z,56.31
2023-02-19T04:05:46.573Z,65.48
2023-02-19T04:06:46.569Z,65.77
2023-02-19T04:07:46.526Z,62.87
2023-02-19T04:08:46.525Z,64.49
2023-02-19T04:09:46.510Z,66.46
2023-02-19T04:10:46.501Z,67.73
2023-02-19T04:11:46.478Z,67.42
2023-02-19T04:12:47.133Z,68.48
2023-02-19T04:13:46.469Z,69.82
2023-02-19T04:14:46.499Z,66.86
2023-02-19T04:15:46.515Z,70.95
2023-02-19T04:16:46.552Z,63.30
2023-02-19T04:17:46.433Z,61.93
2023-02-19T04:18:46.478Z,64.64
2023-02-19T04:19:46.414Z,60.64
2023-02-19T04:20:46.420Z,60.47
2023-02-19T04:21:46.426Z,59.60
2023-02-19T04:22:46.430Z,59.11
2023-02-19T04:23:46.418Z,64.82
2023-02-19T04:24:46.387Z,61.73
2023-02-19T04:25:46.413Z,58.00
2023-02-19T04:26:46.557Z,57.99
2023-02-19T04:27:46.381Z,66.20
2023-02-19T04:28:46.385Z,55.38
2023-02-19T04:29:46.380Z,55.01
2023-02-19T04:30:46.402Z,56.59
2023-02-19T04:31:46.457Z,57.64
2023-02-19T04:32:46.358Z,62.71
2023-02-19T04:33:46.396Z,62.14
2023-02-19T04:34:46.350Z,56.57
2023-02-19T04:35:46.333Z,56.35
2023-02-19T04:36:46.312Z,63.07
2023-02-19T04:37:46.449Z,69.86
2023-02-19T04:38:46.305Z,59.77
2023-02-19T04:39:46.389Z,54.05
2023-02-19T04:40:47.227Z,58.89
2023-02-19T04:41:46.283Z,55.00
2023-02-19T04:42:46.344Z,54.25
2023-02-19T04:43:47.149Z,53.63
2023-02-19T04:44:46.365Z,58.87
2023-02-19T04:45:46.281Z,60.21
2023-02-19T04:46:46.266Z,58.64
2023-02-19T04:47:46.270Z,56.73
2023-02-19T04:48:47.175Z,58.20
2023-02-19T04:49:46.335Z,64.78
2023-02-19T04:50:46.257Z,65.53
2023-02-19T04:51:46.220Z,64.57
2023-02-19T04:52:46.252Z,60.14
2023-02-19T04:53:46.215Z,57.17
2023-02-19T04:54:46.240Z,59.02
2023-02-19T04:55:46.207Z,53.80
2023-02-19T04:56:46.214Z,65.44
2023-02-19T04:57:46.227Z,64.12
2023-02-19T04:58:47.148Z,60.80
2023-02-19T04:59:46.190Z,56.18
2023-02-19T05:00:46.239Z,63.83
2023-02-19T05:01:46.248Z,61.90
2023-02-19T05:02:46.190Z,53.95
2023-02-19T05:03:46.183Z,60.16
2023-02-19T05:04:46.171Z,53.10
2023-02-19T05:05:47.179Z,59.76
2023-02-19T05:06:46.206Z,53.14
2023-02-19T05:07:46.139Z,58.98
2023-02-19T05:08:46.203Z,56.12
2023-02-19T05:09:46.154Z,56.74
2023-02-19T05:10:47.182Z,57.52
2023-02-19T05:11:46.145Z,63.62
2023-02-19T05:12:46.163Z,55.29
2023-02-19T05:13:46.145Z,62.70
2023-02-19T05:14:46.084Z,59.57
2023-02-19T05:15:46.213Z,52.98
2023-02-19T05:16:46.060Z,53.95
2023-02-19T05:17:46.157Z,60.54
2023-02-19T05:18:46.135Z,61.67
2023-02-19T05:19:46.051Z,52.73
2023-02-19T05:20:46.093Z,52.82
2023-02-19T05:21:46.085Z,52.69
2023-02-19T05:22:46.040Z,52.66
2023-02-19T05:23:46.022Z,58.81
2023-02-19T05:24:46.701Z,61.63
2023-02-19T05:25:46.047Z,52.69
2023-02-19T05:26:46.067Z,60.66
2023-02-19T05:27:46.019Z,60.74
2023-02-19T05:28:46.001Z,57.47
2023-02-19T05:29:45.979Z,67.04
2023-02-19T05:30:46.047Z,61.48
2023-02-19T05:31:46.054Z,57.42
2023-02-19T05:32:45.957Z,53.48
2023-02-19T05:33:45.943Z,57.19
2023-02-19T05:34:45.956Z,54.08
2023-02-19T05:35:45.960Z,62.32
2023-02-19T05:36:45.964Z,53.71
2023-02-19T05:37:46.000Z,58.36
2023-02-19T05:38:46.185Z,53.21
2023-02-19T05:39:45.922Z,53.22
2023-02-19T05:40:45.953Z,58.73
2023-02-19T05:41:45.944Z,57.61
2023-02-19T05:42:45.948Z,54.83
2023-02-19T05:43:45.913Z,58.03
2023-02-19T05:44:45.934Z,63.73
2023-02-19T05:45:45.906Z,54.46
2023-02-19T05:46:45.941Z,58.57
2023-02-19T05:47:45.902Z,59.46
2023-02-19T05:48:45.862Z,67.58
2023-02-19T05:49:45.849Z,63.84
2023-02-19T05:50:45.854Z,55.67
2023-02-19T05:51:45.845Z,61.53
2023-02-19T05:52:45.882Z,53.55
2023-02-19T05:53:45.829Z,52.79
2023-02-19T05:54:45.843Z,53.99
2023-02-19T05:55:45.934Z,67.09
2023-02-19T05:56:45.909Z,55.35
2023-02-19T05:57:45.830Z,64.34
2023-02-19T05:58:45.849Z,59.55
2023-02-19T05:59:45.881Z,59.49
2023-02-19T06:00:45.868Z,55.48
2023-02-19T06:01:45.830Z,53.66
2023-02-19T06:02:45.837Z,53.75
2023-02-19T06:03:45.867Z,61.36
2023-02-19T06:04:45.815Z,65.45
2023-02-19T06:05:45.784Z,65.82
2023-02-19T06:06:45.771Z,57.02
2023-02-19T06:07:45.771Z,62.89
2023-02-19T06:08:45.752Z,57.61
2023-02-19T06:09:45.795Z,60.15
2023-02-19T06:10:45.739Z,65.13
2023-02-19T06:11:45.760Z,59.16
2023-02-19T06:12:45.716Z,61.78
2023-02-19T06:13:45.735Z,53.05
2023-02-19T06:14:45.711Z,58.36
2023-02-19T06:15:45.751Z,53.06
2023-02-19T06:16:46.650Z,66.50
2023-02-19T06:17:45.708Z,62.96
2023-02-19T06:18:45.671Z,53.52
2023-02-19T06:19:45.721Z,59.34
2023-02-19T06:20:45.694Z,58.48
2023-02-19T06:21:45.714Z,68.08
2023-02-19T06:22:45.723Z,55.26
2023-02-19T06:23:45.672Z,55.63
2023-02-19T06:24:45.688Z,61.07
2023-02-19T06:25:45.719Z,56.63
2023-02-19T06:26:45.651Z,59.58
2023-02-19T06:27:45.636Z,67.96
2023-02-19T06:28:45.615Z,58.56
2023-02-19T06:29:45.660Z,55.68
2023-02-19T06:30:45.638Z,56.84
2023-02-19T06:31:48.240Z,62.73
2023-02-19T06:32:48.625Z,58.12
2023-02-19T06:33:47.623Z,68.89
2023-02-19T06:34:45.588Z,61.08
2023-02-19T06:35:45.603Z,65.08
2023-02-19T06:36:48.869Z,59.16
2023-02-19T06:37:47.193Z,64.72
2023-02-19T06:38:46.150Z,67.79
2023-02-19T06:39:47.756Z,60.52
2023-02-19T06:40:45.579Z,55.19
2023-02-19T06:41:45.537Z,68.95
2023-02-19T06:42:48.510Z,62.86
2023-02-19T06:43:46.199Z,62.73
2023-02-19T06:44:45.598Z,71.12
2023-02-19T06:45:46.739Z,65.25
2023-02-19T06:46:45.523Z,68.95
2023-02-19T06:47:46.694Z,64.25
2023-02-19T06:48:45.489Z,63.10
2023-02-19T06:49:45.495Z,55.24
2023-02-19T06:50:45.643Z,63.20
2023-02-19T06:51:45.482Z,70.21
2023-02-19T06:52:46.575Z,64.80
2023-02-19T06:53:45.667Z,57.19
2023-02-19T06:54:45.634Z,59.07
2023-02-19T06:55:47.834Z,70.10
2023-02-19T06:56:47.083Z,63.80
2023-02-19T06:57:46.531Z,57.30
2023-02-19T06:58:45.446Z,62.00
2023-02-19T06:59:45.469Z,70.48
2023-02-19T07:00:45.452Z,66.91
2023-02-19T07:01:46.256Z,73.62
2023-02-19T07:02:46.326Z,64.45
2023-02-19T07:03:45.644Z,68.99
2023-02-19T07:04:45.393Z,67.29
2023-02-19T07:05:45.423Z,72.16
2023-02-19T07:06:45.367Z,63.18
2023-02-19T07:07:46.180Z,58.00
2023-02-19T07:08:45.420Z,65.27
2023-02-19T07:09:45.446Z,60.91
2023-02-19T07:10:46.112Z,61.62
2023-02-19T07:11:46.671Z,61.72
2023-02-19T07:12:47.222Z,60.56
2023-02-19T07:13:45.342Z,64.39
2023-02-19T07:14:45.317Z,71.26
2023-02-19T07:15:45.460Z,63.42
2023-02-19T07:16:46.131Z,67.02
2023-02-19T07:17:47.127Z,61.21
2023-02-19T07:18:45.299Z,62.24
2023-02-19T07:19:45.312Z,62.94
2023-02-19T07:20:45.286Z,58.88
2023-02-19T07:21:49.263Z,54.57
2023-02-19T07:22:46.388Z,65.02
2023-02-19T07:23:45.578Z,58.91
2023-02-19T07:24:47.811Z,66.49
2023-02-19T07:25:45.257Z,60.19
2023-02-19T07:26:45.229Z,70.30
2023-02-19T07:27:45.268Z,69.00
2023-02-19T07:28:45.338Z,69.15
2023-02-19T07:29:46.250Z,69.68
2023-02-19T07:30:45.320Z,67.86
2023-02-19T07:31:45.217Z,73.55
2023-02-19T07:32:45.201Z,71.85
2023-02-19T07:33:45.222Z,63.05
2023-02-19T07:34:45.189Z,71.96
2023-02-19T07:35:45.233Z,58.28
2023-02-19T07:36:45.181Z,66.22
2023-02-19T07:37:45.201Z,63.98
2023-02-19T07:38:46.394Z,68.49
2023-02-19T07:39:45.157Z,66.19
2023-02-19T07:40:45.312Z,70.55
2023-02-19T07:41:45.176Z,72.11
2023-02-19T07:42:45.146Z,67.35
2023-02-19T07:43:45.151Z,74.17
2023-02-19T07:44:45.140Z,70.95
2023-02-19T07:45:45.242Z,69.36
2023-02-19T07:46:45.354Z,65.57
2023-02-19T07:47:45.657Z,66.54
2023-02-19T07:48:45.121Z,68.41
2023-02-19T07:49:45.123Z,64.10
2023-02-19T07:50:45.085Z,66.61
2023-02-19T07:51:45.157Z,63.39
2023-02-19T07:52:45.093Z,71.08
2023-02-19T07:53:45.070Z,70.91
2023-02-19T07:54:45.100Z,73.04
2023-02-19T07:55:45.084Z,61.22
2023-02-19T07:56:45.058Z,69.92
2023-02-19T07:57:45.065Z,65.57
2023-02-19T07:58:45.087Z,68.45
2023-02-19T07:59:45.036Z,67.23
2023-02-19T08:00:45.048Z,70.02
2023-02-19T08:01:45.074Z,66.14
2023-02-19T08:02:45.030Z,65.85
2023-02-19T08:03:45.012Z,71.50
2023-02-19T08:04:45.039Z,67.36
2023-02-19T08:05:45.019Z,65.77
2023-02-19T08:06:45.013Z,65.89
2023-02-19T08:07:44.992Z,70.62
2023-02-19T08:08:45.001Z,67.53
2023-02-19T08:09:44.977Z,71.43
2023-02-19T08:10:44.956Z,63.85
2023-02-19T08:11:44.989Z,69.78
2023-02-19T08:12:44.953Z,64.38
2023-02-19T08:13:44.957Z,74.08
2023-02-19T08:14:45.020Z,71.77
2023-02-19T08:15:44.933Z,68.59
2023-02-19T08:16:44.959Z,61.98
2023-02-19T08:17:44.919Z,71.29
2023-02-19T08:18:44.917Z,68.98
2023-02-19T08:19:44.926Z,72.74
2023-02-19T08:20:44.899Z,62.57
2023-02-19T08:21:44.880Z,55.41
2023-02-19T08:22:45.293Z,64.04
2023-02-19T08:23:44.864Z,62.01
2023-02-19T08:24:44.890Z,69.53
2023-02-19T08:25:45.066Z,66.83
2023-02-19T08:26:44.859Z,62.66
2023-02-19T08:27:44.854Z,71.98
2023-02-19T08:28:44.897Z,66.49
2023-02-19T08:29:44.838Z,70.24
2023-02-19T08:30:44.925Z,71.57
2023-02-19T08:31:44.924Z,69.03
2023-02-19T08:32:44.827Z,66.90
2023-02-19T08:33:44.815Z,69.83
2023-02-19T08:34:44.828Z,68.64
2023-02-19T08:35:44.836Z,71.57
2023-02-19T08:36:44.792Z,71.68
2023-02-19T08:37:44.854Z,67.90
2023-02-19T08:38:44.802Z,72.32
2023-02-19T08:39:44.769Z,71.76
2023-02-19T08:40:44.792Z,70.39
2023-02-19T08:41:44.761Z,64.73
2023-02-19T08:42:44.761Z,61.39
2023-02-19T08:43:44.777Z,66.30
2023-02-19T08:44:44.744Z,73.06
2023-02-19T08:45:44.736Z,64.94
2023-02-19T08:46:44.770Z,61.99
2023-02-19T08:47:44.734Z,66.52
2023-02-19T08:48:44.703Z,68.06
2023-02-19T08:49:44.755Z,68.86
2023-02-19T08:50:44.700Z,69.00
2023-02-19T08:51:44.690Z,67.93
2023-02-19T08:52:44.682Z,68.19
2023-02-19T08:53:44.703Z,71.07
2023-02-19T08:54:44.658Z,71.13
2023-02-19T08:55:44.679Z,71.01
2023-02-19T08:56:44.664Z,72.07
2023-02-19T08:57:44.636Z,74.46
2023-02-19T08:58:44.656Z,72.77
2023-02-19T08:59:44.642Z,73.89
2023-02-19T09:00:44.629Z,72.61
2023-02-19T09:01:44.739Z,68.04
2023-02-19T09:02:44.599Z,69.62
2023-02-19T09:03:44.684Z,73.13
2023-02-19T09:04:44.631Z,69.85
2023-02-19T09:05:44.586Z,69.36
2023-02-19T09:06:44.578Z,67.94
2023-02-19T09:07:44.600Z,73.59
2023-02-19T09:08:45.232Z,64.56
2023-02-19T09:09:44.562Z,69.24
2023-02-19T09:10:45.660Z,70.37
2023-02-19T09:11:44.575Z,69.57
2023-02-19T09:12:44.681Z,71.01
2023-02-19T09:13:44.573Z,69.52
2023-02-19T09:14:45.116Z,68.44
2023-02-19T09:15:44.548Z,67.33
2023-02-19T09:16:44.561Z,74.56
2023-02-19T09:18:04.043Z,67.51
2023-02-19T09:18:44.500Z,73.24
2023-02-19T09:19:44.519Z,72.94
2023-02-19T09:20:44.481Z,65.91
2023-02-19T09:21:44.497Z,69.32
2023-02-19T09:22:44.491Z,71.08
2023-02-19T09:23:44.471Z,70.62
2023-02-19T09:24:44.496Z,70.59
2023-02-19T09:25:44.568Z,73.90
2023-02-19T09:26:44.717Z,68.76
2023-02-19T09:27:44.453Z,71.57
2023-02-19T09:28:44.449Z,69.85
2023-02-19T09:29:44.634Z,68.50
2023-02-19T09:30:44.472Z,68.52
2023-02-19T09:31:45.341Z,64.63
2023-02-19T09:32:44.482Z,67.36
2023-02-19T09:33:44.433Z,68.24
2023-02-19T09:34:44.391Z,66.82
2023-02-19T09:35:44.513Z,72.93
2023-02-19T09:36:44.419Z,64.29
2023-02-19T09:37:44.412Z,71.88
2023-02-19T09:38:44.389Z,71.51
2023-02-19T09:39:44.357Z,73.24
2023-02-19T09:40:44.443Z,71.56
2023-02-19T09:41:44.359Z,72.33
2023-02-19T09:42:44.350Z,67.57
2023-02-19T09:43:44.406Z,71.90
2023-02-19T09:44:44.339Z,73.94
2023-02-19T09:45:44.336Z,72.40
2023-02-19T09:46:44.322Z,69.83
2023-02-19T09:47:44.318Z,69.62
2023-02-19T09:48:45.694Z,74.41
2023-02-19T09:49:44.296Z,71.95
2023-02-19T09:50:45.380Z,72.21
2023-02-19T09:51:44.285Z,69.66
2023-02-19T09:52:44.359Z,70.27
2023-02-19T09:53:44.283Z,71.95
2023-02-19T09:54:45.506Z,69.27
2023-02-19T09:55:45.036Z,74.91
2023-02-19T09:56:44.275Z,74.29
2023-02-19T09:57:44.275Z,72.81
2023-02-19T09:58:44.310Z,73.69
2023-02-19T09:59:44.237Z,74.59
2023-02-19T10:00:44.231Z,74.00
2023-02-19T10:01:44.234Z,74.72
2023-02-19T10:02:44.207Z,74.69
2023-02-19T10:03:44.655Z,73.12
2023-02-19T10:04:44.301Z,64.85
2023-02-19T10:05:45.078Z,68.68
2023-02-19T10:06:44.189Z,74.77
2023-02-19T10:07:44.239Z,79.67
2023-02-19T10:08:45.643Z,68.45
2023-02-19T10:09:45.165Z,76.73
2023-02-19T10:10:44.180Z,73.99
2023-02-19T10:11:44.149Z,66.47
2023-02-19T10:12:44.150Z,72.53
2023-02-19T10:13:44.171Z,72.17
2023-02-19T10:14:44.147Z,68.36
2023-02-19T10:15:44.214Z,75.38
2023-02-19T10:16:44.137Z,66.35
2023-02-19T10:17:44.360Z,76.53
2023-02-19T10:18:44.113Z,73.64
2023-02-19T10:19:44.112Z,69.96
2023-02-19T10:20:44.113Z,72.88
2023-02-19T10:21:44.155Z,68.72
2023-02-19T10:22:44.092Z,69.33
2023-02-19T10:23:45.099Z,76.52
2023-02-19T10:24:44.086Z,69.45
2023-02-19T10:25:44.099Z,72.46
2023-02-19T10:26:44.089Z,71.00
2023-02-19T10:27:44.172Z,76.94
2023-02-19T10:28:44.060Z,72.13
2023-02-19T10:29:44.054Z,72.27
2023-02-19T10:30:44.073Z,75.97
2023-02-19T10:31:44.328Z,75.96
2023-02-19T10:32:44.025Z,73.19
2023-02-19T10:33:44.029Z,75.24
2023-02-19T10:34:44.013Z,69.41
2023-02-19T10:35:44.011Z,76.10
2023-02-19T10:36:44.152Z,70.45
2023-02-19T10:37:44.031Z,73.99
2023-02-19T10:38:44.663Z,75.32
2023-02-19T10:39:44.115Z,72.85
2023-02-19T10:40:43.986Z,70.44
2023-02-19T10:41:44.456Z,72.56
2023-02-19T10:42:44.967Z,77.20
2023-02-19T10:43:43.980Z,73.09
2023-02-19T10:44:43.958Z,72.38
2023-02-19T10:45:43.947Z,72.30
2023-02-19T10:46:43.986Z,71.83
2023-02-19T10:47:44.027Z,71.74
2023-02-19T10:48:43.989Z,74.94
2023-02-19T10:49:43.977Z,72.26
2023-02-19T10:50:43.962Z,76.04
2023-02-19T10:51:44.889Z,72.85
2023-02-19T10:52:43.901Z,72.27
2023-02-19T10:53:43.891Z,74.24
2023-02-19T10:54:43.904Z,75.51
2023-02-19T10:55:43.929Z,77.67
2023-02-19T10:56:43.895Z,72.22
2023-02-19T10:57:43.869Z,75.40
2023-02-19T10:58:43.883Z,75.17
2023-02-19T10:59:46.234Z,73.21
2023-02-19T11:00:44.673Z,75.13
2023-02-19T11:01:43.911Z,75.41
2023-02-19T11:02:43.844Z,72.26
2023-02-19T11:03:43.842Z,74.02
2023-02-19T11:04:43.864Z,73.31
2023-02-19T11:05:43.814Z,75.15
2023-02-19T11:06:43.831Z,77.07
2023-02-19T11:07:43.804Z,72.88
2023-02-19T11:08:43.797Z,75.53
2023-02-19T11:09:43.802Z,76.13
2023-02-19T11:10:43.837Z,72.62
2023-02-19T11:11:43.785Z,70.14
2023-02-19T11:12:43.759Z,73.13
2023-02-19T11:13:44.020Z,78.11
2023-02-19T11:14:44.139Z,74.17
2023-02-19T11:15:43.774Z,74.66
2023-02-19T11:16:43.844Z,75.90
2023-02-19T11:17:43.747Z,77.35
2023-02-19T11:18:43.739Z,73.63
2023-02-19T11:19:43.811Z,77.43
2023-02-19T11:20:43.743Z,74.35
2023-02-19T11:21:43.716Z,76.44
2023-02-19T11:22:43.702Z,74.06
2023-02-19T11:23:43.700Z,70.57
2023-02-19T11:24:43.696Z,73.16
2023-02-19T11:25:43.681Z,71.81
2023-02-19T11:26:43.772Z,78.20
2023-02-19T11:27:43.845Z,73.61
2023-02-19T11:28:43.660Z,73.44
2023-02-19T11:29:43.654Z,76.56
2023-02-19T11:30:43.712Z,76.17
2023-02-19T11:31:43.742Z,76.71
2023-02-19T11:32:44.652Z,75.95
2023-02-19T11:33:43.641Z,75.02
2023-02-19T11:34:44.644Z,72.99
2023-02-19T11:35:43.685Z,72.36
2023-02-19T11:36:43.600Z,73.48
2023-02-19T11:37:43.636Z,68.41
2023-02-19T11:38:43.634Z,76.62
2023-02-19T11:39:43.634Z,75.68
2023-02-19T11:40:43.586Z,71.05
2023-02-19T11:41:43.637Z,76.47
2023-02-19T11:42:43.633Z,70.92
2023-02-19T11:43:44.168Z,64.60
2023-02-19T11:44:44.588Z,75.73
2023-02-19T11:45:43.722Z,77.49
2023-02-19T11:46:43.631Z,76.59
2023-02-19T11:47:43.543Z,75.25
2023-02-19T11:48:43.573Z,74.11
2023-02-19T11:49:43.529Z,75.61
2023-02-19T11:50:43.573Z,75.30
2023-02-19T11:51:44.956Z,77.41
2023-02-19T11:52:43.509Z,76.25
2023-02-19T11:53:43.523Z,75.47
2023-02-19T11:54:43.506Z,76.67
2023-02-19T11:55:43.868Z,77.17
2023-02-19T11:56:43.491Z,75.19
2023-02-19T11:57:44.169Z,76.31
2023-02-19T11:58:43.490Z,75.52
2023-02-19T11:59:43.465Z,73.38
2023-02-19T12:00:43.507Z,76.86
2023-02-19T12:01:43.456Z,75.92
2023-02-19T12:02:43.452Z,73.53
2023-02-19T12:03:43.461Z,75.64
2023-02-19T12:04:43.465Z,71.74
2023-02-19T12:05:43.412Z,74.97
2023-02-19T12:06:43.498Z,76.70
2023-02-19T12:07:43.536Z,76.27
2023-02-19T12:08:44.193Z,76.22
2023-02-19T12:09:43.436Z,75.01
2023-02-19T12:10:43.393Z,76.52
2023-02-19T12:11:43.399Z,73.45
2023-02-19T12:12:43.399Z,74.42
2023-02-19T12:13:43.426Z,72.49
2023-02-19T12:14:43.360Z,77.21
2023-02-19T12:15:43.379Z,71.35
2023-02-19T12:16:43.457Z,76.25
2023-02-19T12:17:43.347Z,75.80
2023-02-19T12:18:43.376Z,74.15
2023-02-19T12:19:43.361Z,74.47
2023-02-19T12:20:43.364Z,74.12
2023-02-19T12:21:43.324Z,76.95
2023-02-19T12:22:43.395Z,68.29
2023-02-19T12:23:43.334Z,76.17
2023-02-19T12:24:43.361Z,71.45
2023-02-19T12:25:43.368Z,76.66
2023-02-19T12:26:44.305Z,75.99
2023-02-19T12:27:43.333Z,74.16
2023-02-19T12:28:43.288Z,68.63
2023-02-19T12:29:43.254Z,72.12
2023-02-19T12:30:43.278Z,76.99
2023-02-19T12:31:43.405Z,70.35
2023-02-19T12:32:43.269Z,76.86
2023-02-19T12:33:43.289Z,73.25
2023-02-19T12:34:43.254Z,73.78
2023-02-19T12:35:43.250Z,75.07
2023-02-19T12:36:43.250Z,71.22
2023-02-19T12:37:43.228Z,75.93
2023-02-19T12:38:43.252Z,75.32
2023-02-19T12:39:43.203Z,75.73
2023-02-19T12:40:43.237Z,68.82
2023-02-19T12:41:43.202Z,72.49
2023-02-19T12:42:43.193Z,75.19
2023-02-19T12:43:43.198Z,69.98
2023-02-19T12:44:44.169Z,75.89
2023-02-19T12:45:43.192Z,73.40
2023-02-19T12:46:43.170Z,76.38
2023-02-19T12:47:43.151Z,73.68
2023-02-19T12:48:43.169Z,74.10
2023-02-19T12:49:43.137Z,69.37
2023-02-19T12:50:43.153Z,65.06
2023-02-19T12:51:43.180Z,71.41
2023-02-19T12:52:43.127Z,77.79